»·PEaware :: N75746 KBUR-KFUL

N75746 :: KBUR-KFUL

FLIGHT INFORMATION

Flight Status: Arrived
Operator: Privately registered:
United States
More flights under this callsign
Pilot: Jon S. (30297)
Aircraft: CESSNA 172 SKYHAWK
(C172)
More flights by this aircraft type
Origin: KBUR Bob Hope-Burbank
United States
Destination: KFUL Fullerton Mun
United States
More flights between these airports :: More routes between these airports
Route: VPLRB KEMT VPLSC
File this flight plan on PilotEdge
Remarks:
Altitude:
(Current/Filed)
3,500ft
Speed:
(Current/Filed)
110kts
Departed: 03-Dec-20 06:42 PM
Arrived: 03-Dec-20 07:01 PM
Distance/Time
Traveled:
28nm/0:19
Distance/Time
To Go:
Arrived

Flight Plot

Page will automatically refresh every two minutes.


Map Options




Map Legend


Flown Route
Filed Route
Departure Airport
Arrival Airport
Navaid (VOR, NDB)
Fix

Horizontal Profiles

Position Reports

Time Latitude Longitude Heading Altitude Ground
Speed
03-Dec-20 18:19 34.196041 -118.360886 0 712ft 0kts
03-Dec-20 18:20 34.196041 -118.360886 180 712ft 0kts
03-Dec-20 18:21 34.196041 -118.360886 180 712ft 0kts
03-Dec-20 18:22 34.196041 -118.360886 180 712ft 0kts
03-Dec-20 18:23 34.196041 -118.360886 180 712ft 0kts
03-Dec-20 18:24 34.196041 -118.360886 180 712ft 0kts
03-Dec-20 18:25 34.196041 -118.360886 180 712ft 0kts
03-Dec-20 18:26 34.196041 -118.360886 180 712ft 0kts
03-Dec-20 18:27 34.196041 -118.360886 180 712ft 0kts
03-Dec-20 18:28 34.196145 -118.360817 15 713ft 3kts
03-Dec-20 18:29 34.196524 -118.360665 24 713ft 0kts
03-Dec-20 18:30 34.196524 -118.360665 24 713ft 0kts
03-Dec-20 18:31 34.196524 -118.360665 24 713ft 0kts
03-Dec-20 18:32 34.196524 -118.360665 24 713ft 0kts
03-Dec-20 18:33 34.196524 -118.360665 24 713ft 0kts
03-Dec-20 18:34 34.197196 -118.360280 6 714ft 0kts
03-Dec-20 18:35 34.196815 -118.360821 268 714ft 6kts
03-Dec-20 18:36 34.196894 -118.364804 270 719ft 19kts
03-Dec-20 18:37 34.197066 -118.368907 2 724ft 0kts
03-Dec-20 18:38 34.197121 -118.368955 324 724ft 0kts
03-Dec-20 18:39 34.197181 -118.369008 324 724ft 0kts
03-Dec-20 18:40 34.197919 -118.367878 92 725ft 32kts
03-Dec-20 18:41 34.194784 -118.343291 130 1257ft 87kts
03-Dec-20 18:42 34.178292 -118.323560 139 2078ft 82kts
03-Dec-20 18:43 34.164438 -118.301089 102 2746ft 90kts
03-Dec-20 18:44 34.158429 -118.272512 97 3458ft 90kts
03-Dec-20 18:45 34.150540 -118.238968 108 3540ft 108kts
03-Dec-20 18:46 34.141139 -118.204306 104 3554ft 113kts
03-Dec-20 18:47 34.130556 -118.168321 109 3488ft 118kts
03-Dec-20 18:48 34.118631 -118.132229 110 3440ft 116kts
03-Dec-20 18:49 34.107407 -118.096177 109 3402ft 115kts
03-Dec-20 18:50 34.093342 -118.061717 113 3405ft 111kts
03-Dec-20 18:51 34.079059 -118.028650 139 3404ft 115kts
03-Dec-20 18:52 34.051109 -118.010437 149 3491ft 114kts
03-Dec-20 18:53 34.023126 -117.992202 148 3547ft 117kts
03-Dec-20 18:54 33.993377 -117.974072 151 3507ft 121kts
03-Dec-20 18:56 33.965092 -117.952478 138 3435ft 114kts
03-Dec-20 18:57 33.939393 -117.930362 144 3398ft 113kts
03-Dec-20 18:58 33.910453 -117.915450 188 2865ft 125kts
03-Dec-20 18:59 33.884346 -117.939701 216 1891ft 98kts
03-Dec-20 19:00 33.875508 -117.961963 258 773ft 71kts
03-Dec-20 19:01 33.871802 -117.980991 260 90ft 17kts
03-Dec-20 19:02 33.872291 -117.981416 336 90ft 0kts
03-Dec-20 19:03 33.873210 -117.981642 359 89ft 0kts
03-Dec-20 19:04 33.873229 -117.981671 182 89ft 1kts
03-Dec-20 19:05 33.872614 -117.981562 153 89ft 0kts
03-Dec-20 19:06 33.872614 -117.981562 153 89ft 0kts
03-Dec-20 19:07 33.872614 -117.981562 153 89ft 0kts
03-Dec-20 19:08 33.872614 -117.981562 153 89ft 0kts
03-Dec-20 19:09 33.872366 -117.980265 77 92ft 10kts
03-Dec-20 19:10 33.873213 -117.976051 78 96ft 7kts
03-Dec-20 19:11 33.872994 -117.974998 180 96ft 6kts
03-Dec-20 19:12 33.869505 -117.989270 254 345ft 87kts
03-Dec-20 19:13 33.874474 -118.010964 3 1033ft 90kts
03-Dec-20 19:13 33.883015 -117.990314 80 1154ft 97kts
03-Dec-20 19:15 33.882999 -117.958587 156 819ft 79kts
03-Dec-20 19:15 33.873740 -117.970596 257 286ft 65kts

Navigation Log

Ident Type
Flight plan parsing failed, navigation log unavailable